createdAt,value
2022-12-31T00:05:41.867Z,12.2
2022-12-31T00:15:43.748Z,12.3
2022-12-31T00:25:45.900Z,12.3
2022-12-31T00:35:48.121Z,12.4
2022-12-31T00:45:49.855Z,12.5
2022-12-31T00:55:52.353Z,12.3
2022-12-31T01:05:54.184Z,12.2
2022-12-31T01:15:56.825Z,12.1
2022-12-31T01:25:59.220Z,11.9
2022-12-31T01:56:05.783Z,12.1
2022-12-31T02:46:17.311Z,13.4
2022-12-31T03:26:26.101Z,14.6
2022-12-31T03:36:28.198Z,14.5
2022-12-31T03:46:30.690Z,14.1
2022-12-31T03:56:33.068Z,14
2022-12-31T04:06:34.927Z,13.9
2022-12-31T04:16:36.915Z,14
2022-12-31T04:26:39.547Z,13.5
2022-12-31T04:36:41.405Z,13.4
2022-12-31T04:46:43.947Z,13.6
2022-12-31T04:56:46.172Z,13.9
2022-12-31T05:06:48.248Z,14.3
2022-12-31T05:16:50.175Z,15
2022-12-31T05:36:54.363Z,15.3
2022-12-31T05:46:56.749Z,15.6
2022-12-31T05:56:58.499Z,15.7
2022-12-31T06:07:00.517Z,16
2022-12-31T06:17:02.990Z,16
2022-12-31T06:27:04.961Z,15.7
2022-12-31T06:37:06.799Z,15.9
2022-12-31T06:47:08.757Z,15.9
2022-12-31T06:57:11.352Z,16.1
2022-12-31T07:07:13.167Z,16.1
2022-12-31T07:17:15.551Z,16
2022-12-31T07:27:18.164Z,16.1
2022-12-31T07:37:20.643Z,16.3
2022-12-31T07:47:22.733Z,16.2
2022-12-31T07:57:25.245Z,16.2
2022-12-31T08:07:27.198Z,16.4
2022-12-31T08:27:30.721Z,16.2
2022-12-31T08:37:32.708Z,16.3
2022-12-31T08:47:38.372Z,16.5
2022-12-31T08:57:36.570Z,16.6
2022-12-31T09:07:39.091Z,16.6
2022-12-31T09:17:41.550Z,16.7
2022-12-31T09:27:43.437Z,16.8
2022-12-31T09:37:45.161Z,16.8
2022-12-31T09:47:47.792Z,16.1
2022-12-31T09:57:49.547Z,16.4
2022-12-31T10:07:53.501Z,16.5
2022-12-31T10:17:53.402Z,15.9
2022-12-31T10:27:55.648Z,16.4
2022-12-31T10:28:17.576Z,16.4
2022-12-31T10:38:05.033Z,16.5
2022-12-31T10:48:07.003Z,16.7
2022-12-31T10:58:09.012Z,16.8
2022-12-31T11:08:11.593Z,16.9
2022-12-31T11:18:13.598Z,16.9
2022-12-31T11:28:15.555Z,17.1
2022-12-31T11:38:17.790Z,17.2
2022-12-31T11:48:31.913Z,17
2022-12-31T11:58:21.451Z,17
2022-12-31T12:08:23.160Z,16.9
2022-12-31T12:18:24.810Z,16.9
2022-12-31T12:28:27.344Z,16.7
2022-12-31T12:38:29.095Z,16.5
2022-12-31T12:48:31.155Z,16.2
2022-12-31T12:58:33.009Z,15.6
2022-12-31T13:08:35.138Z,15.3
2022-12-31T13:18:37.487Z,15.6
2022-12-31T13:28:39.134Z,15.7
2022-12-31T13:38:41.030Z,16
2022-12-31T13:48:43.457Z,16.2
2022-12-31T13:58:45.922Z,16.4
2022-12-31T14:08:48.030Z,15.9
2022-12-31T14:18:50.146Z,15.9
2022-12-31T14:38:54.674Z,16.2
2022-12-31T14:48:56.746Z,16.3
2022-12-31T14:58:58.992Z,16.2
2022-12-31T15:09:05.815Z,16
2022-12-31T15:19:03.352Z,15.9
2022-12-31T15:29:05.685Z,15.5
2022-12-31T15:39:08.124Z,15.5
2022-12-31T15:49:15.268Z,15.3
2022-12-31T15:59:12.776Z,15.2
2022-12-31T16:09:14.531Z,15.3
2022-12-31T16:19:16.444Z,15.7
2022-12-31T16:29:18.801Z,15.8
2022-12-31T16:39:20.880Z,15.9
2022-12-31T16:49:22.909Z,16.1
2022-12-31T16:59:25.371Z,16
2022-12-31T17:09:26.519Z,16
2022-12-31T17:19:28.468Z,16
2022-12-31T17:29:30.446Z,16
2022-12-31T17:39:32.722Z,16
2022-12-31T17:49:34.997Z,16
2022-12-31T17:59:37.370Z,15.9
2022-12-31T18:09:39.889Z,15.9
2022-12-31T18:20:05.519Z,15.8
2022-12-31T18:39:46.795Z,15.7
2022-12-31T18:49:49.429Z,15.6
2022-12-31T18:59:51.933Z,15.6
2022-12-31T19:09:58.241Z,15.4
2022-12-31T19:19:56.134Z,15.5
2022-12-31T19:29:57.891Z,15.5
2022-12-31T19:39:59.951Z,15.5
2022-12-31T19:50:02.249Z,15.5
2022-12-31T20:00:04.589Z,15.5
2022-12-31T20:10:06.941Z,15.6
2022-12-31T20:20:09.248Z,15.6
2022-12-31T20:40:14.265Z,15.6
2022-12-31T20:50:16.673Z,15.7
2022-12-31T21:00:18.872Z,15.9
2022-12-31T21:10:21.126Z,16
2022-12-31T21:20:23.422Z,15.9
2022-12-31T21:30:25.570Z,16.1
2022-12-31T21:40:28.146Z,16
2022-12-31T21:50:29.967Z,16
2022-12-31T22:00:42.127Z,16.2
2022-12-31T22:10:37.190Z,16.1
2022-12-31T22:20:35.801Z,16.2
2022-12-31T22:40:40.556Z,16.2
2022-12-31T22:50:42.681Z,16.3
2022-12-31T23:00:44.744Z,16.5
2022-12-31T23:10:46.959Z,16.3
2022-12-31T23:20:49.562Z,16.3
2022-12-31T23:30:51.761Z,16.4
2022-12-31T23:40:54.331Z,16.3
2022-12-31T23:50:56.258Z,16.3
